Aviation Digital Data Service (ADDS)

Output produced by METARs form (1329 UTC 24 August 2019)
found at http://www.aviationweather.gov/metar/data/
 
METAR text: SCIP 241300Z 29006KT 9999 -SHRA SCT005 BKN015 OVC022 19/18 Q1011 NOSIG
Conditions at: SCIP (EASTER ISLAND , CL) observed 1300 UTC 24 August 2019
Temperature: 19.0°C (66°F)
Dewpoint: 18.0°C (64°F) [RH = 94%]
Pressure (altimeter): 29.85 inches Hg (1011.0 mb)
Winds: from the WNW (290 degrees) at 7 MPH (6 knots; 3.1 m/s)
Visibility: 6 or more miles (10+ km)
Ceiling: 1500 feet AGL
Clouds: scattered clouds at 500 feet AGL
broken clouds at 1500 feet AGL
overcast cloud deck at 2200 feet AGL
Weather: -SHRA  (light rain showers)

METAR text: SCIP 241200Z 27008KT 7000 -SHRA SCT004 BKN014 OVC020 18/18 Q1011 NOSIG
Conditions at: SCIP (EASTER ISLAND , CL) observed 1200 UTC 24 August 2019
Temperature: 18.0°C (64°F)
Dewpoint: 18.0°C (64°F) [RH = 100%]
Pressure (altimeter): 29.85 inches Hg (1011.0 mb)
Winds: from the W (270 degrees) at 9 MPH (8 knots; 4.1 m/s)
Visibility: 4 miles ( 7 km)
Ceiling: 1400 feet AGL
Clouds: scattered clouds at 400 feet AGL
broken clouds at 1400 feet AGL
overcast cloud deck at 2000 feet AGL
Weather: -SHRA  (light rain showers)

METAR text: SCIP 241100Z 31013KT 5000 SHRA SCT004 BKN015 OVC040 19/19 Q1011 NOSIG
Conditions at: SCIP (EASTER ISLAND , CL) observed 1100 UTC 24 August 2019
Temperature: 19.0°C (66°F)
Dewpoint: 19.0°C (66°F) [RH = 100%]
Pressure (altimeter): 29.85 inches Hg (1011.0 mb)
Winds: from the NW (310 degrees) at 15 MPH (13 knots; 6.7 m/s)
Visibility: 3 miles ( 5 km)
Ceiling: 1500 feet AGL
Clouds: scattered clouds at 400 feet AGL
broken clouds at 1500 feet AGL
overcast cloud deck at 4000 feet AGL
Weather: SHRA  (rain showers)

METAR text: SCIP 241000Z 28010KT 5000 -SHRA BKN005 OVC016 19/19 Q1011 NOSIG
Conditions at: SCIP (EASTER ISLAND , CL) observed 1000 UTC 24 August 2019
Temperature: 19.0°C (66°F)
Dewpoint: 19.0°C (66°F) [RH = 100%]
Pressure (altimeter): 29.85 inches Hg (1011.0 mb)
Winds: from the W (280 degrees) at 12 MPH (10 knots; 5.1 m/s)
Visibility: 3 miles ( 5 km)
Ceiling: 500 feet AGL
Clouds: broken clouds at 500 feet AGL
overcast cloud deck at 1600 feet AGL
Weather: -SHRA  (light rain showers)

METAR text: SCIP 240900Z 28014KT 9999 -SHRA BKN005 OVC018 20/19 Q1011 NOSIG
Conditions at: SCIP (EASTER ISLAND , CL) observed 0900 UTC 24 August 2019
Temperature: 20.0°C (68°F)
Dewpoint: 19.0°C (66°F) [RH = 94%]
Pressure (altimeter): 29.85 inches Hg (1011.0 mb)
Winds: from the W (280 degrees) at 16 MPH (14 knots; 7.2 m/s)
Visibility: 6 or more miles (10+ km)
Ceiling: 500 feet AGL
Clouds: broken clouds at 500 feet AGL
overcast cloud deck at 1800 feet AGL
Weather: -SHRA  (light rain showers)

METAR text: SCIP 240800Z 27015KT 4000 SHRA BKN007 OVC018 19/19 Q1011 NOSIG
Conditions at: SCIP (EASTER ISLAND , CL) observed 0800 UTC 24 August 2019
Temperature: 19.0°C (66°F)
Dewpoint: 19.0°C (66°F) [RH = 100%]
Pressure (altimeter): 29.85 inches Hg (1011.0 mb)
Winds: from the W (270 degrees) at 17 MPH (15 knots; 7.7 m/s)
Visibility: 2.49 miles (4.01 km)
Ceiling: 700 feet AGL
Clouds: broken clouds at 700 feet AGL
overcast cloud deck at 1800 feet AGL
Weather: SHRA  (rain showers)

METAR text: SCIP 240700Z 30017KT 3500 SHRA BKN015 OVC017 20/19 Q1011 NOSIG
Conditions at: SCIP (EASTER ISLAND , CL) observed 0700 UTC 24 August 2019
Temperature: 20.0°C (68°F)
Dewpoint: 19.0°C (66°F) [RH = 94%]
Pressure (altimeter): 29.85 inches Hg (1011.0 mb)
Winds: from the WNW (300 degrees) at 20 MPH (17 knots; 8.7 m/s)
Visibility: 2.17 miles (3.49 km)
Ceiling: 1500 feet AGL
Clouds: broken clouds at 1500 feet AGL
overcast cloud deck at 1700 feet AGL
Weather: SHRA  (rain showers)

METAR text: SCIP 240600Z 31021KT 5000 -SHRA BKN005 OVC017 20/19 Q1011 NOSIG
Conditions at: SCIP (EASTER ISLAND , CL) observed 0600 UTC 24 August 2019
Temperature: 20.0°C (68°F)
Dewpoint: 19.0°C (66°F) [RH = 94%]
Pressure (altimeter): 29.85 inches Hg (1011.0 mb)
Winds: from the NW (310 degrees) at 24 MPH (21 knots; 10.8 m/s)
Visibility: 3 miles ( 5 km)
Ceiling: 500 feet AGL
Clouds: broken clouds at 500 feet AGL
overcast cloud deck at 1700 feet AGL
Weather: -SHRA  (light rain showers)

METAR text: SCIP 240500Z 31018KT 5000 -SHRA BKN005 OVC015 20/19 Q1011 NOSIG
Conditions at: SCIP (EASTER ISLAND , CL) observed 0500 UTC 24 August 2019
Temperature: 20.0°C (68°F)
Dewpoint: 19.0°C (66°F) [RH = 94%]
Pressure (altimeter): 29.85 inches Hg (1011.0 mb)
Winds: from the NW (310 degrees) at 21 MPH (18 knots; 9.3 m/s)
Visibility: 3 miles ( 5 km)
Ceiling: 500 feet AGL
Clouds: broken clouds at 500 feet AGL
overcast cloud deck at 1500 feet AGL
Weather: -SHRA  (light rain showers)

METAR text: SCIP 240400Z 32021KT 9999 SCT015 BKN020 BKN040 20/19 Q1011 RESHRA NOSIG
Conditions at: SCIP (EASTER ISLAND , CL) observed 0400 UTC 24 August 2019
Temperature: 20.0°C (68°F)
Dewpoint: 19.0°C (66°F) [RH = 94%]
Pressure (altimeter): 29.85 inches Hg (1011.0 mb)
Winds: from the NW (320 degrees) at 24 MPH (21 knots; 10.8 m/s)
Visibility: 6 or more miles (10+ km)
Ceiling: 2000 feet AGL
Clouds: scattered clouds at 1500 feet AGL
broken clouds at 2000 feet AGL
broken clouds at 4000 feet AGL
Weather: no significant weather observed at this time

METAR text: SCIP 240300Z 32023KT 9999 -SHRA BKN018 OVC031 21/18 Q1011 NOSIG
Conditions at: SCIP (EASTER ISLAND , CL) observed 0300 UTC 24 August 2019
Temperature: 21.0°C (70°F)
Dewpoint: 18.0°C (64°F) [RH = 83%]
Pressure (altimeter): 29.85 inches Hg (1011.0 mb)
Winds: from the NW (320 degrees) at 26 MPH (23 knots; 11.8 m/s)
Visibility: 6 or more miles (10+ km)
Ceiling: 1800 feet AGL
Clouds: broken clouds at 1800 feet AGL
overcast cloud deck at 3100 feet AGL
Weather: -SHRA  (light rain showers)

METAR text: SCIP 240200Z 32022KT 9999 BKN025 BKN035 20/18 Q1010 NOSIG
Conditions at: SCIP (EASTER ISLAND , CL) observed 0200 UTC 24 August 2019
Temperature: 20.0°C (68°F)
Dewpoint: 18.0°C (64°F) [RH = 88%]
Pressure (altimeter): 29.82 inches Hg (1010.0 mb)
Winds: from the NW (320 degrees) at 25 MPH (22 knots; 11.3 m/s)
Visibility: 6 or more miles (10+ km)
Ceiling: 2500 feet AGL
Clouds: broken clouds at 2500 feet AGL
broken clouds at 3500 feet AGL
Weather: no significant weather observed at this time

METAR text: SCIP 240100Z 32023G33KT 8000 -SHRA SCT015 BKN035 21/17 Q1010 NOSIG
Conditions at: SCIP (EASTER ISLAND , CL) observed 0100 UTC 24 August 2019
Temperature: 21.0°C (70°F)
Dewpoint: 17.0°C (63°F) [RH = 78%]
Pressure (altimeter): 29.82 inches Hg (1010.0 mb)
Winds: from the NW (320 degrees) at 26 MPH (23 knots; 11.8 m/s)
gusting to 38 MPH (33 knots; 17.0 m/s)
Visibility: 5 miles ( 8 km)
Ceiling: 3500 feet AGL
Clouds: scattered clouds at 1500 feet AGL
broken clouds at 3500 feet AGL
Weather: -SHRA  (light rain showers)

METAR text: SCIP 240000Z 32024KT 9999 BKN025 BKN040 21/17 Q1010 NOSIG
Conditions at: SCIP (EASTER ISLAND , CL) observed 0000 UTC 24 August 2019
Temperature: 21.0°C (70°F)
Dewpoint: 17.0°C (63°F) [RH = 78%]
Pressure (altimeter): 29.82 inches Hg (1010.0 mb)
Winds: from the NW (320 degrees) at 28 MPH (24 knots; 12.3 m/s)
Visibility: 6 or more miles (10+ km)
Ceiling: 2500 feet AGL
Clouds: broken clouds at 2500 feet AGL
broken clouds at 4000 feet AGL
Weather: no significant weather observed at this time

METAR text: SCIP 232300Z 32025G35KT 9999 BKN025 BKN040 21/16 Q1009 NOSIG
Conditions at: SCIP (EASTER ISLAND , CL) observed 2300 UTC 23 August 2019
Temperature: 21.0°C (70°F)
Dewpoint: 16.0°C (61°F) [RH = 73%]
Pressure (altimeter): 29.79 inches Hg (1009.0 mb)
Winds: from the NW (320 degrees) at 29 MPH (25 knots; 12.9 m/s)
gusting to 40 MPH (35 knots; 18.0 m/s)
Visibility: 6 or more miles (10+ km)
Ceiling: 2500 feet AGL
Clouds: broken clouds at 2500 feet AGL
broken clouds at 4000 feet AGL
Weather: no significant weather observed at this time

METAR text: SCIP 232200Z 32027G37KT 9999 SCT025 BKN040 22/16 Q1009 NOSIG
Conditions at: SCIP (EASTER ISLAND , CL) observed 2200 UTC 23 August 2019
Temperature: 22.0°C (72°F)
Dewpoint: 16.0°C (61°F) [RH = 69%]
Pressure (altimeter): 29.79 inches Hg (1009.0 mb)
Winds: from the NW (320 degrees) at 31 MPH (27 knots; 13.9 m/s)
gusting to 43 MPH (37 knots; 19.0 m/s)
Visibility: 6 or more miles (10+ km)
Ceiling: 4000 feet AGL
Clouds: scattered clouds at 2500 feet AGL
broken clouds at 4000 feet AGL
Weather: no significant weather observed at this time

METAR text: SCIP 232100Z 32023G35KT 9999 SCT025 BKN040 21/16 Q1010 TEMPO WS 25G40KT 2000FT
Conditions at: SCIP (EASTER ISLAND , CL) observed 2100 UTC 23 August 2019
Temperature: 21.0°C (70°F)
Dewpoint: 16.0°C (61°F) [RH = 73%]
Pressure (altimeter): 29.82 inches Hg (1010.0 mb)
Winds: from the NW (320 degrees) at 26 MPH (23 knots; 11.8 m/s)
gusting to 40 MPH (35 knots; 18.0 m/s)
Visibility: 6 or more miles (10+ km)
Ceiling: 4000 feet AGL
Clouds: scattered clouds at 2500 feet AGL
broken clouds at 4000 feet AGL
Weather: no significant weather observed at this time

METAR text: SCIP 232000Z 32027G37KT 9999 SCT025 BKN040 21/15 Q1011 TEMPO WS 25G40KT 2000 FT
Conditions at: SCIP (EASTER ISLAND , CL) observed 2000 UTC 23 August 2019
Temperature: 21.0°C (70°F)
Dewpoint: 15.0°C (59°F) [RH = 69%]
Pressure (altimeter): 29.85 inches Hg (1011.0 mb)
Winds: from the NW (320 degrees) at 31 MPH (27 knots; 13.9 m/s)
gusting to 43 MPH (37 knots; 19.0 m/s)
Visibility: 6 or more miles (10+ km)
Ceiling: 4000 feet AGL
Clouds: scattered clouds at 2500 feet AGL
broken clouds at 4000 feet AGL
Weather: no significant weather observed at this time

METAR text: SCIP 231900Z 32026G36KT 9999 SCT025 BKN040 21/15 Q1012 TEMPO WS 25G40KT 2000FT
Conditions at: SCIP (EASTER ISLAND , CL) observed 1900 UTC 23 August 2019
Temperature: 21.0°C (70°F)
Dewpoint: 15.0°C (59°F) [RH = 69%]
Pressure (altimeter): 29.88 inches Hg (1012.0 mb)
Winds: from the NW (320 degrees) at 30 MPH (26 knots; 13.4 m/s)
gusting to 41 MPH (36 knots; 18.5 m/s)
Visibility: 6 or more miles (10+ km)
Ceiling: 4000 feet AGL
Clouds: scattered clouds at 2500 feet AGL
broken clouds at 4000 feet AGL
Weather: no significant weather observed at this time

METAR text: SCIP 231800Z 32025KT 9999 FEW025 SCT040 21/15 Q1012 NOSIG
Conditions at: SCIP (EASTER ISLAND , CL) observed 1800 UTC 23 August 2019
Temperature: 21.0°C (70°F)
Dewpoint: 15.0°C (59°F) [RH = 69%]
Pressure (altimeter): 29.88 inches Hg (1012.0 mb)
Winds: from the NW (320 degrees) at 29 MPH (25 knots; 12.9 m/s)
Visibility: 6 or more miles (10+ km)
Ceiling: at least 12,000 feet AGL
Clouds: few clouds at 2500 feet AGL
scattered clouds at 4000 feet AGL
Weather: no significant weather observed at this time

METAR text: SCIP 231700Z 32021KT 9999 SCT025 BKN040 21/14 Q1013 NOSIG
Conditions at: SCIP (EASTER ISLAND , CL) observed 1700 UTC 23 August 2019
Temperature: 21.0°C (70°F)
Dewpoint: 14.0°C (57°F) [RH = 64%]
Pressure (altimeter): 29.91 inches Hg (1013.0 mb)
Winds: from the NW (320 degrees) at 24 MPH (21 knots; 10.8 m/s)
Visibility: 6 or more miles (10+ km)
Ceiling: 4000 feet AGL
Clouds: scattered clouds at 2500 feet AGL
broken clouds at 4000 feet AGL
Weather: no significant weather observed at this time

METAR text: SCIP 231600Z 32021KT 9999 SCT025 20/14 Q1013 NOSIG
Conditions at: SCIP (EASTER ISLAND , CL) observed 1600 UTC 23 August 2019
Temperature: 20.0°C (68°F)
Dewpoint: 14.0°C (57°F) [RH = 68%]
Pressure (altimeter): 29.91 inches Hg (1013.0 mb)
Winds: from the NW (320 degrees) at 24 MPH (21 knots; 10.8 m/s)
Visibility: 6 or more miles (10+ km)
Ceiling: at least 12,000 feet AGL
Clouds: scattered clouds at 2500 feet AGL
Weather: no significant weather observed at this time

METAR text: SCIP 231500Z 32017KT 9999 SCT025 20/13 Q1013 NOSIG
Conditions at: SCIP (EASTER ISLAND , CL) observed 1500 UTC 23 August 2019
Temperature: 20.0°C (68°F)
Dewpoint: 13.0°C (55°F) [RH = 64%]
Pressure (altimeter): 29.91 inches Hg (1013.0 mb)
Winds: from the NW (320 degrees) at 20 MPH (17 knots; 8.7 m/s)
Visibility: 6 or more miles (10+ km)
Ceiling: at least 12,000 feet AGL
Clouds: scattered clouds at 2500 feet AGL
Weather: no significant weather observed at this time

METAR text: SCIP 231400Z 33015KT 9999 SCT020 BKN040 19/13 Q1013 NOSIG
Conditions at: SCIP (EASTER ISLAND , CL) observed 1400 UTC 23 August 2019
Temperature: 19.0°C (66°F)
Dewpoint: 13.0°C (55°F) [RH = 68%]
Pressure (altimeter): 29.91 inches Hg (1013.0 mb)
Winds: from the NNW (330 degrees) at 17 MPH (15 knots; 7.7 m/s)
Visibility: 6 or more miles (10+ km)
Ceiling: 4000 feet AGL
Clouds: scattered clouds at 2000 feet AGL
broken clouds at 4000 feet AGL
Weather: no significant weather observed at this time

METAR text: SCIP 231300Z 32014KT 9999 SCT020 SCT040 18/12 Q1012 NOSIG
Conditions at: SCIP (EASTER ISLAND , CL) observed 1300 UTC 23 August 2019
Temperature: 18.0°C (64°F)
Dewpoint: 12.0°C (54°F) [RH = 68%]
Pressure (altimeter): 29.88 inches Hg (1012.0 mb)
Winds: from the NW (320 degrees) at 16 MPH (14 knots; 7.2 m/s)
Visibility: 6 or more miles (10+ km)
Ceiling: at least 12,000 feet AGL
Clouds: scattered clouds at 2000 feet AGL
scattered clouds at 4000 feet AGL
Weather: no significant weather observed at this time

METAR text: SCIP 231200Z 32012KT 9999 FEW020 SCT040 BKN150 19/12 Q1012 NOSIG
Conditions at: SCIP (EASTER ISLAND , CL) observed 1200 UTC 23 August 2019
Temperature: 19.0°C (66°F)
Dewpoint: 12.0°C (54°F) [RH = 64%]
Pressure (altimeter): 29.88 inches Hg (1012.0 mb)
Winds: from the NW (320 degrees) at 14 MPH (12 knots; 6.2 m/s)
Visibility: 6 or more miles (10+ km)
Ceiling: 15000 feet AGL
Clouds: few clouds at 2000 feet AGL
scattered clouds at 4000 feet AGL
broken clouds at 15000 feet AGL
Weather: no significant weather observed at this time

METAR text: SCIP 231100Z 31013KT 9999 SCT020 BKN040 BKN150 18/12 Q1013 NOSIG
Conditions at: SCIP (EASTER ISLAND , CL) observed 1100 UTC 23 August 2019
Temperature: 18.0°C (64°F)
Dewpoint: 12.0°C (54°F) [RH = 68%]
Pressure (altimeter): 29.91 inches Hg (1013.0 mb)
Winds: from the NW (310 degrees) at 15 MPH (13 knots; 6.7 m/s)
Visibility: 6 or more miles (10+ km)
Ceiling: 4000 feet AGL
Clouds: scattered clouds at 2000 feet AGL
broken clouds at 4000 feet AGL
broken clouds at 15000 feet AGL
Weather: no significant weather observed at this time

METAR text: SCIP 231000Z 31015KT 9999 SCT020 BKN040 BKN150 18/11 Q1013 NOSIG
Conditions at: SCIP (EASTER ISLAND , CL) observed 1000 UTC 23 August 2019
Temperature: 18.0°C (64°F)
Dewpoint: 11.0°C (52°F) [RH = 64%]
Pressure (altimeter): 29.91 inches Hg (1013.0 mb)
Winds: from the NW (310 degrees) at 17 MPH (15 knots; 7.7 m/s)
Visibility: 6 or more miles (10+ km)
Ceiling: 4000 feet AGL
Clouds: scattered clouds at 2000 feet AGL
broken clouds at 4000 feet AGL
broken clouds at 15000 feet AGL
Weather: no significant weather observed at this time

METAR text: SCIP 230900Z 31015KT 9999 SCT020 BKN040 BKN150 18/11 Q1014 NOSIG
Conditions at: SCIP (EASTER ISLAND , CL) observed 0900 UTC 23 August 2019
Temperature: 18.0°C (64°F)
Dewpoint: 11.0°C (52°F) [RH = 64%]
Pressure (altimeter): 29.94 inches Hg (1014.0 mb)
Winds: from the NW (310 degrees) at 17 MPH (15 knots; 7.7 m/s)
Visibility: 6 or more miles (10+ km)
Ceiling: 4000 feet AGL
Clouds: scattered clouds at 2000 feet AGL
broken clouds at 4000 feet AGL
broken clouds at 15000 feet AGL
Weather: no significant weather observed at this time

METAR text: SCIP 230800Z 31013KT 9999 SCT020 BKN040 BKN100 18/11 Q1014 NOSIG
Conditions at: SCIP (EASTER ISLAND , CL) observed 0800 UTC 23 August 2019
Temperature: 18.0°C (64°F)
Dewpoint: 11.0°C (52°F) [RH = 64%]
Pressure (altimeter): 29.94 inches Hg (1014.0 mb)
Winds: from the NW (310 degrees) at 15 MPH (13 knots; 6.7 m/s)
Visibility: 6 or more miles (10+ km)
Ceiling: 4000 feet AGL
Clouds: scattered clouds at 2000 feet AGL
broken clouds at 4000 feet AGL
broken clouds at 10000 feet AGL
Weather: no significant weather observed at this time

METAR text: SCIP 230700Z 31014KT 9999 FEW020 SCT040 BKN250 18/10 Q1014 NOSIG
Conditions at: SCIP (EASTER ISLAND , CL) observed 0700 UTC 23 August 2019
Temperature: 18.0°C (64°F)
Dewpoint: 10.0°C (50°F) [RH = 59%]
Pressure (altimeter): 29.94 inches Hg (1014.0 mb)
Winds: from the NW (310 degrees) at 16 MPH (14 knots; 7.2 m/s)
Visibility: 6 or more miles (10+ km)
Ceiling: 25000 feet AGL
Clouds: few clouds at 2000 feet AGL
scattered clouds at 4000 feet AGL
broken clouds at 25000 feet AGL
Weather: no significant weather observed at this time

METAR text: SCIP 230600Z VRB12KT 9999 SCT020 BKN040 BKN250 18/11 Q1015 NOSIG
Conditions at: SCIP (EASTER ISLAND , CL) observed 0600 UTC 23 August 2019
Temperature: 18.0°C (64°F)
Dewpoint: 11.0°C (52°F) [RH = 64%]
Pressure (altimeter): 29.97 inches Hg (1015.0 mb)
Winds: variable direction winds at 14 MPH (12 knots; 6.2 m/s)
Visibility: 6 or more miles (10+ km)
Ceiling: 4000 feet AGL
Clouds: scattered clouds at 2000 feet AGL
broken clouds at 4000 feet AGL
broken clouds at 25000 feet AGL
Weather: no significant weather observed at this time

METAR text: SCIP 230500Z 31010KT 9999 SCT020 BKN040 18/10 Q1015 NOSIG
Conditions at: SCIP (EASTER ISLAND , CL) observed 0500 UTC 23 August 2019
Temperature: 18.0°C (64°F)
Dewpoint: 10.0°C (50°F) [RH = 59%]
Pressure (altimeter): 29.97 inches Hg (1015.0 mb)
Winds: from the NW (310 degrees) at 12 MPH (10 knots; 5.1 m/s)
Visibility: 6 or more miles (10+ km)
Ceiling: 4000 feet AGL
Clouds: scattered clouds at 2000 feet AGL
broken clouds at 4000 feet AGL
Weather: no significant weather observed at this time

METAR text: SCIP 230400Z 31005KT 9999 SCT020 BKN040 17/11 Q1015 NOSIG
Conditions at: SCIP (EASTER ISLAND , CL) observed 0400 UTC 23 August 2019
Temperature: 17.0°C (63°F)
Dewpoint: 11.0°C (52°F) [RH = 68%]
Pressure (altimeter): 29.97 inches Hg (1015.0 mb)
Winds: from the NW (310 degrees) at 6 MPH (5 knots; 2.6 m/s)
Visibility: 6 or more miles (10+ km)
Ceiling: 4000 feet AGL
Clouds: scattered clouds at 2000 feet AGL
broken clouds at 4000 feet AGL
Weather: no significant weather observed at this time

METAR text: SCIP 230300Z 31010KT 9999 SCT020 BKN040 18/10 Q1015 NOSIG
Conditions at: SCIP (EASTER ISLAND , CL) observed 0300 UTC 23 August 2019
Temperature: 18.0°C (64°F)
Dewpoint: 10.0°C (50°F) [RH = 59%]
Pressure (altimeter): 29.97 inches Hg (1015.0 mb)
Winds: from the NW (310 degrees) at 12 MPH (10 knots; 5.1 m/s)
Visibility: 6 or more miles (10+ km)
Ceiling: 4000 feet AGL
Clouds: scattered clouds at 2000 feet AGL
broken clouds at 4000 feet AGL
Weather: no significant weather observed at this time

METAR text: SCIP 230200Z 20008KT 9999 FEW025 BKN050 18/09 Q1014 NOSIG
Conditions at: SCIP (EASTER ISLAND , CL) observed 0200 UTC 23 August 2019
Temperature: 18.0°C (64°F)
Dewpoint: 9.0°C (48°F) [RH = 56%]
Pressure (altimeter): 29.94 inches Hg (1014.0 mb)
Winds: from the SSW (200 degrees) at 9 MPH (8 knots; 4.1 m/s)
Visibility: 6 or more miles (10+ km)
Ceiling: 5000 feet AGL
Clouds: few clouds at 2500 feet AGL
broken clouds at 5000 feet AGL
Weather: no significant weather observed at this time

Forecast for: AMD
Text: TAF AMD SCIP 241328Z 2414/2512 30010KT 5000 SHRA SCT005 BKN015 OVC025 TX20/2419Z TN19/2410Z
Forecast period: 1400 to 2300 UTC 24 August 2019
Forecast type: FROM: standard forecast or significant change
Winds: from the WNW (300 degrees) at 12 MPH (10 knots; 5.1 m/s)
Visibility: 3 miles (5 km)
Ceiling: 1500 feet AGL
Clouds: scattered clouds at 500 feet AGL
broken clouds at 1500 feet AGL
overcast cloud deck at 2500 feet AGL
Weather: SHRA  (rain showers)
Text: TEMPO 2414/2420 25004KT 2000 RA BKN004 OVC015
Forecast period: 1400 to 2000 UTC 24 August 2019
Forecast type: TEMPORARY: The following changes expected for less than half the time period
Winds: from the WSW (250 degrees) at 5 MPH (4 knots; 2.1 m/s)
Visibility: 1.24 miles (2.00 km)
Ceiling: 400 feet AGL
Clouds: broken clouds at 400 feet AGL
overcast cloud deck at 1500 feet AGL
Weather: RA  (moderate rain)
Text: BECMG 2423/2501 33017KT 7000 SHRA SCT015 BKN025
Forecast period: 2300 UTC 24 August 2019 to 0300 UTC 25 August 2019
Forecast type: BECOMING: Conditions expected to become as follows by 0100 UTC 25 August 2019
Winds: from the NNW (330 degrees) at 20 MPH (17 knots; 8.7 m/s)
Visibility: 4 miles (7 km)
Ceiling: 2500 feet AGL
Clouds: scattered clouds at 1500 feet AGL
broken clouds at 2500 feet AGL
Weather: SHRA  (rain showers)
Text: BECMG 2503/2505 30022G32KT 3000 RA
Forecast period: 0300 to 0900 UTC 25 August 2019
Forecast type: BECOMING: Conditions expected to become as follows by 0500 UTC 25 August 2019
Winds: from the WNW (300 degrees) at 25 MPH (22 knots; 11.3 m/s)
gusting to 37 MPH (32 knots; 16.5 m/s)
Visibility: 1.86 miles (2.99 km)
Ceiling: 2500 feet AGL
Clouds: scattered clouds at 1500 feet AGL
broken clouds at 2500 feet AGL
Weather: RA  (moderate rain)
Text: BECMG 2509/2511 30010KT
Forecast period: 0900 to 1200 UTC 25 August 2019
Forecast type: BECOMING: Conditions expected to become as follows by 1100 UTC 25 August 2019
Winds: from the WNW (300 degrees) at 12 MPH (10 knots; 5.1 m/s)
Visibility: 1.86 miles (2.99 km)
Ceiling: 2500 feet AGL
Clouds: scattered clouds at 1500 feet AGL
broken clouds at 2500 feet AGL
Weather: RA  (moderate rain)